createdAt,value
2023-05-06T00:02:30.373Z,100341.31
2023-05-06T00:07:32.865Z,100344.42
2023-05-06T00:12:36.067Z,100347.85
2023-05-06T00:17:40.267Z,100352.72
2023-05-06T00:22:42.895Z,100351.05
2023-05-06T00:27:45.798Z,100346.58
2023-05-06T00:32:49.167Z,100346.75
2023-05-06T00:38:09.662Z,100346.05
2023-05-06T00:43:12.565Z,100343.40
2023-05-06T00:48:16.895Z,100343.61
2023-05-06T00:53:23.461Z,100339.84
2023-05-06T00:58:26.830Z,100335.76
2023-05-06T01:03:29.929Z,100331.71
2023-05-06T01:08:41.266Z,100326.89
2023-05-06T01:13:50.789Z,100318.39
2023-05-06T01:19:00.020Z,100308.86
2023-05-06T01:24:02.926Z,100307.02
2023-05-06T01:29:06.185Z,100313.29
2023-05-06T01:34:26.181Z,100314.13
2023-05-06T01:39:33.366Z,100318.28
2023-05-06T01:44:38.915Z,100316.27
2023-05-06T01:49:43.006Z,100314.27
2023-05-06T01:54:47.133Z,100317.29
2023-05-06T01:59:49.869Z,100315.72
2023-05-06T02:04:53.992Z,100319.94
2023-05-06T02:09:57.324Z,100318.55
2023-05-06T02:14:59.816Z,100317.52
2023-05-06T02:20:03.865Z,100315.07
2023-05-06T02:25:07.300Z,100309.36
2023-05-06T02:30:10.925Z,100311.11
2023-05-06T02:35:14.197Z,100308.33
2023-05-06T02:40:16.991Z,100302.57
2023-05-06T02:45:21.483Z,100303.35
2023-05-06T02:50:25.702Z,100303.48
2023-05-06T02:55:28.050Z,100302.98
2023-05-06T03:00:31.312Z,100294.28
2023-05-06T03:05:33.683Z,100288.23
2023-05-06T03:10:36.381Z,100276.66
2023-05-06T03:15:39.585Z,100265.11
2023-05-06T03:20:42.604Z,100266.70
2023-05-06T03:25:46.736Z,100263.52
2023-05-06T03:30:49.197Z,100270.63
2023-05-06T03:35:51.101Z,100268.05
2023-05-06T03:40:53.293Z,100268.05
2023-05-06T03:45:56.349Z,100271.11
2023-05-06T03:50:59.532Z,100271.27
2023-05-06T03:56:04.067Z,100267.94
2023-05-06T04:01:07.689Z,100261.29
2023-05-06T04:06:10.908Z,100263.77
2023-05-06T04:11:14.523Z,100257.23
2023-05-06T04:16:18.480Z,100258.39
2023-05-06T04:21:22.335Z,100259.73
2023-05-06T04:26:26.162Z,100259.17
2023-05-06T04:31:29.371Z,100260.94
2023-05-06T04:36:32.417Z,100257.21
2023-05-06T04:41:35.608Z,100260.42
2023-05-06T04:46:38.352Z,100263.43
2023-05-06T04:51:40.573Z,100257.22
2023-05-06T04:56:44.095Z,100251.27
2023-05-06T05:01:47.998Z,100243.11
2023-05-06T05:06:51.104Z,100235.93
2023-05-06T05:11:52.959Z,100236.41
2023-05-06T05:16:56.085Z,100228.84
2023-05-06T05:22:00.290Z,100229.02
2023-05-06T05:27:04.505Z,100219.13
2023-05-06T05:32:07.828Z,100218.48
2023-05-06T05:37:11.410Z,100220.25
2023-05-06T05:42:14.633Z,100220.45
2023-05-06T05:47:17.777Z,100212.35
2023-05-06T05:52:22.135Z,100209.86
2023-05-06T05:57:25.018Z,100207.75
2023-05-06T06:02:28.236Z,100203.27
2023-05-06T06:07:31.485Z,100200.09
2023-05-06T06:12:33.987Z,100195.68
2023-05-06T06:17:40.897Z,100194.98
2023-05-06T06:22:44.959Z,100192.02
2023-05-06T06:27:48.535Z,100196.41
2023-05-06T06:32:53.290Z,100190.02
2023-05-06T06:37:56.220Z,100189.44
2023-05-06T06:42:59.515Z,100199.54
2023-05-06T06:48:02.885Z,100185.82
2023-05-06T06:53:06.736Z,100180.39
2023-05-06T06:58:10.720Z,100188.50
2023-05-06T07:03:19.405Z,100186.50
2023-05-06T07:08:22.393Z,100184.86
2023-05-06T07:13:25.632Z,100176.93
2023-05-06T07:18:29.735Z,100172.36
2023-05-06T07:23:33.475Z,100162.70
2023-05-06T07:28:37.418Z,100171.90
2023-05-06T07:33:42.248Z,100173.38
2023-05-06T07:38:45.444Z,100174.39
2023-05-06T07:43:48.264Z,100165.10
2023-05-06T07:48:51.799Z,100164.75
2023-05-06T07:53:56.110Z,100170.81
2023-05-06T07:58:59.931Z,100168.89
2023-05-06T08:04:01.960Z,100172.26
2023-05-06T08:09:05.172Z,100174.84
2023-05-06T08:14:07.841Z,100181.56
2023-05-06T08:19:10.140Z,100176.66
2023-05-06T08:24:13.418Z,100168.03
2023-05-06T08:29:16.386Z,100165.96
2023-05-06T08:34:21.488Z,100161.73
2023-05-06T08:39:24.714Z,100155.73
2023-05-06T08:44:27.818Z,100159.98
2023-05-06T08:49:31.095Z,100166.92
2023-05-06T08:54:36.583Z,100165.30
2023-05-06T08:59:40.763Z,100157.69
2023-05-06T09:04:45.545Z,100151.30
2023-05-06T09:09:51.978Z,100153.69
2023-05-06T09:14:57.305Z,100153.21
2023-05-06T09:20:01.216Z,100145.17
2023-05-06T09:25:05.756Z,100131.84
2023-05-06T09:30:14.974Z,100123.61
2023-05-06T09:35:19.395Z,100126.28
2023-05-06T09:40:25.448Z,100118.20
2023-05-06T09:45:30.012Z,100111.56
2023-05-06T09:50:33.077Z,100113.04
2023-05-06T09:55:37.873Z,100120.17
2023-05-06T10:00:42.660Z,100127.24
2023-05-06T10:05:47.296Z,100130.42
2023-05-06T10:10:50.824Z,100129.30
2023-05-06T10:15:54.017Z,100116.63
2023-05-06T10:20:59.641Z,100109.88
2023-05-06T10:26:07.742Z,100102.09
2023-05-06T10:31:14.136Z,100112.90
2023-05-06T10:36:32.249Z,100105.95
2023-05-06T10:41:38.219Z,100110.81
2023-05-06T10:47:14.525Z,100119.58
2023-05-06T10:52:17.972Z,100116.05
2023-05-06T10:57:27.087Z,100116.91
2023-05-06T11:02:33.429Z,100113.58
2023-05-06T11:07:36.814Z,100106.73
2023-05-06T11:12:53.219Z,100106.66
2023-05-06T11:17:56.642Z,100106.46
2023-05-06T11:23:00.343Z,100105.11
2023-05-06T11:28:08.135Z,100097.09
2023-05-06T11:33:34.927Z,100085.00
2023-05-06T11:38:46.921Z,100087.15
2023-05-06T11:43:54.359Z,100080.54
2023-05-06T11:49:04.565Z,100089.06
2023-05-06T11:54:10.857Z,100093.06
2023-05-06T11:59:13.342Z,100101.05
2023-05-06T12:04:18.932Z,100106.84
2023-05-06T12:09:28.026Z,100105.15
2023-05-06T12:14:33.567Z,100100.75
2023-05-06T12:19:39.203Z,100100.75
2023-05-06T12:24:49.692Z,100102.16
2023-05-06T12:29:55.941Z,100104.83
2023-05-06T12:35:01.315Z,100102.34
2023-05-06T12:40:05.831Z,100093.11
2023-05-06T12:45:22.424Z,100080.52
2023-05-06T12:50:36.378Z,100074.14
2023-05-06T12:55:42.189Z,100071.94
2023-05-06T13:00:47.304Z,100071.40
2023-05-06T13:05:52.898Z,100059.93
2023-05-06T13:10:56.717Z,100049.13
2023-05-06T13:15:59.868Z,100035.30
2023-05-06T13:21:04.004Z,100040.61
2023-05-06T13:26:10.244Z,100039.34
2023-05-06T13:31:14.479Z,100038.02
2023-05-06T13:36:19.462Z,100041.85
2023-05-06T13:41:26.546Z,100044.55
2023-05-06T13:46:32.535Z,100044.14
2023-05-06T13:51:35.909Z,100035.04
2023-05-06T13:56:45.430Z,100032.15
2023-05-06T14:01:57.204Z,100037.16
2023-05-06T14:07:01.457Z,100041.27
2023-05-06T14:12:05.995Z,100031.34
2023-05-06T14:17:09.986Z,100026.29
2023-05-06T14:22:12.485Z,100021.38
2023-05-06T14:27:15.846Z,100022.46
2023-05-06T14:32:20.448Z,100036.42
2023-05-06T14:37:24.781Z,100047.19
2023-05-06T14:42:28.282Z,100056.75
2023-05-06T14:47:31.287Z,100069.99
2023-05-06T14:52:34.055Z,100080.16
2023-05-06T14:57:36.650Z,100097.09
2023-05-06T15:02:41.521Z,100117.51
2023-05-06T15:07:45.504Z,100127.73
2023-05-06T15:12:49.406Z,100137.55
2023-05-06T15:17:52.354Z,100128.48
2023-05-06T15:22:55.784Z,100135.39
2023-05-06T15:27:58.558Z,100136.34
2023-05-06T15:33:02.644Z,100137.27
2023-05-06T15:38:06.528Z,100134.26
2023-05-06T15:43:09.836Z,100134.77
2023-05-06T15:48:13.439Z,100141.27
2023-05-06T15:53:20.159Z,100149.88
2023-05-06T15:58:27.552Z,100156.27
2023-05-06T16:03:33.035Z,100149.98
2023-05-06T16:08:37.607Z,100153.21
2023-05-06T16:13:42.151Z,100146.60
2023-05-06T16:18:47.220Z,100146.03
2023-05-06T16:23:50.870Z,100141.70
2023-05-06T16:28:53.448Z,100148.60
2023-05-06T16:33:56.759Z,100151.86
2023-05-06T16:38:59.769Z,100149.13
2023-05-06T16:44:02.601Z,100149.71
2023-05-06T16:49:05.244Z,100156.52
2023-05-06T16:54:09.381Z,100155.86
2023-05-06T16:59:12.927Z,100157.27
2023-05-06T17:04:16.096Z,100163.91
2023-05-06T17:09:18.982Z,100173.27
2023-05-06T17:14:22.512Z,100185.28
2023-05-06T17:19:25.100Z,100192.34
2023-05-06T17:24:27.284Z,100191.49
2023-05-06T17:29:30.031Z,100196.82
2023-05-06T17:34:35.351Z,100201.26
2023-05-06T17:39:38.924Z,100206.22
2023-05-06T17:44:42.468Z,100211.75
2023-05-06T17:49:45.482Z,100213.86
2023-05-06T17:55:15.975Z,100212.79
2023-05-06T18:00:13.682Z,100208.42
2023-05-06T18:05:17.884Z,100203.25
2023-05-06T18:10:20.287Z,100195.71
2023-05-06T18:15:25.320Z,100192.86
2023-05-06T18:20:30.001Z,100197.94
2023-05-06T18:25:32.145Z,100198.59
2023-05-06T18:30:35.285Z,100197.53
2023-05-06T18:35:43.378Z,100204.23
2023-05-06T18:40:58.108Z,100210.04
2023-05-06T18:46:12.049Z,100218.15
2023-05-06T18:51:30.678Z,100232.55
2023-05-06T18:56:47.991Z,100232.23
2023-05-06T19:02:00.162Z,100238.34
2023-05-06T19:07:06.761Z,100231.27
2023-05-06T19:12:13.939Z,100236.81
2023-05-06T19:17:26.282Z,100237.30
2023-05-06T19:22:39.700Z,100238.40
2023-05-06T19:28:00.678Z,100243.36
2023-05-06T19:33:12.384Z,100243.52
2023-05-06T19:38:24.548Z,100247.38
2023-05-06T19:43:34.452Z,100245.00
2023-05-06T19:48:49.441Z,100239.12
2023-05-06T19:54:01.873Z,100243.23
2023-05-06T19:59:08.281Z,100246.10
2023-05-06T20:04:12.329Z,100244.18
2023-05-06T20:09:16.363Z,100245.23
2023-05-06T20:14:21.303Z,100247.86
2023-05-06T20:19:31.203Z,100253.13
2023-05-06T20:24:39.130Z,100252.87
2023-05-06T20:29:43.117Z,100250.61
2023-05-06T20:34:47.864Z,100250.98
2023-05-06T20:39:59.084Z,100253.89
2023-05-06T20:45:12.336Z,100259.02
2023-05-06T20:50:21.187Z,100261.38
2023-05-06T20:55:27.111Z,100266.17
2023-05-06T21:00:33.226Z,100267.98
2023-05-06T21:05:38.172Z,100270.08
2023-05-06T21:10:41.739Z,100274.45
2023-05-06T21:15:46.925Z,100282.80
2023-05-06T21:20:51.395Z,100286.30
2023-05-06T21:26:00.799Z,100289.35
2023-05-06T21:31:15.775Z,100291.48
2023-05-06T21:36:19.566Z,100288.73
2023-05-06T21:41:22.537Z,100288.98
2023-05-06T21:46:25.951Z,100291.09
2023-05-06T21:51:33.180Z,100293.54
2023-05-06T21:56:37.137Z,100293.00
2023-05-06T22:01:41.156Z,100299.69
2023-05-06T22:06:45.074Z,100309.31
2023-05-06T22:11:48.541Z,100310.66
2023-05-06T22:16:53.033Z,100304.05
2023-05-06T22:21:57.865Z,100303.52
2023-05-06T22:27:01.308Z,100299.07
2023-05-06T22:32:04.944Z,100297.68
2023-05-06T22:37:11.131Z,100294.33
2023-05-06T22:42:14.777Z,100300.36
2023-05-06T22:47:19.559Z,100301.39
2023-05-06T22:52:22.662Z,100306.28
2023-05-06T22:57:25.392Z,100305.13
2023-05-06T23:02:28.497Z,100302.47
2023-05-06T23:07:31.740Z,100311.95
2023-05-06T23:12:35.329Z,100311.25
2023-05-06T23:17:40.573Z,100308.72
2023-05-06T23:22:44.843Z,100313.70
2023-05-06T23:27:49.292Z,100318.42
2023-05-06T23:32:51.534Z,100317.62
2023-05-06T23:37:55.259Z,100320.50
2023-05-06T23:42:59.102Z,100317.39
2023-05-06T23:48:03.571Z,100324.92
2023-05-06T23:53:05.882Z,100327.80
2023-05-06T23:58:10.122Z,100329.90
